Time;durP1;ratioP1;P1;durP2;ratioP2;P2;SDS_P1;SDS_P2;PMS_P1;PMS_P2;Temp;Humidity;BMP_temperature;BMP_pressure;BME280_temperature;BME280_humidity;BME280_pressure;Samples;Min_cycle;Max_cycle;Signal;HPM_P1;HPM_P2
2023/06/06 00:00:10;;;;;;;7.73;3.60;;;18.40;69.30;;;18.34;51.81;101291.84;5072732;28;20190;-76
2023/06/06 00:02:44;;;;;;;4.53;3.33;;;18.30;69.30;;;18.32;51.96;101290.38;5072886;28;20224;-75
2023/06/06 00:05:17;;;;;;;6.10;3.40;;;18.30;69.40;;;18.35;51.94;101288.09;5072998;28;20189;-76
2023/06/06 00:07:50;;;;;;;5.90;3.40;;;18.40;69.50;;;18.22;52.10;101279.84;5072822;28;20213;-76
2023/06/06 00:10:22;;;;;;;4.83;3.40;;;18.30;70.60;;;18.22;51.91;101285.28;5072887;28;20615;-75
2023/06/06 00:12:56;;;;;;;4.90;3.33;;;18.20;69.90;;;18.18;51.99;101284.81;5072802;28;20312;-76
2023/06/06 00:15:30;;;;;;;6.03;3.50;;;18.10;70.30;;;18.16;52.88;101280.66;5072851;28;20288;-76
2023/06/06 00:18:02;;;;;;;6.37;3.43;;;18.20;71.20;;;18.12;52.87;101284.78;5072793;28;20276;-75
2023/06/06 00:20:35;;;;;;;4.87;3.43;;;18.10;70.70;;;17.98;53.28;101278.41;5072497;28;20200;-76
2023/06/06 00:23:07;;;;;;;3.73;2.97;;;18.10;70.70;;;17.94;53.09;101285.28;5072707;28;20232;-76
2023/06/06 00:25:39;;;;;;;3.47;3.17;;;18.00;71.30;;;18.00;53.00;101280.94;5073002;28;20277;-75
2023/06/06 00:28:12;;;;;;;10.77;3.97;;;18.00;71.20;;;17.96;53.24;101282.34;5076680;28;20248;-75
2023/06/06 00:30:44;;;;;;;6.63;3.90;;;18.00;71.10;;;17.92;53.09;101289.19;5076823;28;20248;-74
2023/06/06 00:33:16;;;;;;;5.20;3.43;;;18.00;71.40;;;17.98;52.48;101289.25;5076434;28;20228;-75
2023/06/06 00:35:48;;;;;;;8.23;3.83;;;18.00;71.60;;;17.88;53.15;101288.75;5076624;28;20285;-75
2023/06/06 00:38:20;;;;;;;7.30;3.50;;;17.90;71.70;;;17.86;53.50;101296.25;5076701;28;20185;-75
2023/06/06 00:40:52;;;;;;;8.03;4.20;;;17.90;71.90;;;17.82;53.31;101294.94;5076255;28;20304;-75
2023/06/06 00:43:25;;;;;;;5.90;3.77;;;17.90;71.90;;;17.82;53.43;101294.94;5075773;28;20308;-76
2023/06/06 00:45:57;;;;;;;6.13;3.80;;;17.90;72.20;;;17.65;54.07;101294.38;5076375;28;20285;-76
2023/06/06 00:48:29;;;;;;;4.63;3.50;;;17.80;72.30;;;17.64;53.31;101300.81;5076003;28;20263;-76
2023/06/06 00:51:01;;;;;;;4.77;3.10;;;17.70;72.80;;;17.63;53.56;101301.84;5075718;28;20228;-76
2023/06/06 00:53:33;;;;;;;5.37;3.37;;;17.70;72.90;;;17.43;54.02;101303.44;5075967;28;20284;-75
2023/06/06 00:56:06;;;;;;;6.10;3.60;;;17.50;73.20;;;17.30;54.18;101303.31;5075949;28;20295;-75
2023/06/06 00:58:41;;;;;;;7.93;3.20;;;17.30;74.10;;;17.30;54.73;101295.19;5075611;28;20634;-75
2023/06/06 01:01:13;;;;;;;4.27;3.10;;;17.30;74.50;;;17.20;54.77;101294.66;5075847;28;20193;-75
2023/06/06 01:03:46;;;;;;;5.50;3.43;;;17.20;74.40;;;17.19;54.38;101291.09;5075778;28;20218;-76
2023/06/06 01:06:22;;;;;;;7.10;3.80;;;17.20;74.80;;;17.09;55.16;101297.84;5075460;28;20639;-76
2023/06/06 01:08:54;;;;;;;4.37;3.80;;;17.10;75.30;;;17.04;55.41;101300.28;5075355;28;20231;-76
2023/06/06 01:11:39;;;;;;;5.33;3.57;;;17.00;75.20;;;17.00;55.28;101301.69;5075915;28;20284;-75
2023/06/06 01:14:22;;;;;;;7.80;3.90;;;17.00;75.70;;;17.01;55.54;101300.66;5075649;28;20273;-75
2023/06/06 01:16:57;;;;;;;6.13;3.90;;;17.10;75.50;;;16.98;55.54;101301.06;5075392;28;20263;-75
2023/06/06 01:19:33;;;;;;;5.40;4.00;;;17.00;75.80;;;16.84;55.67;101302.75;5075240;28;20545;-76
2023/06/06 01:22:13;;;;;;;7.33;4.47;;;16.90;76.10;;;16.71;56.31;101306.06;5075431;28;20225;-75
2023/06/06 01:24:50;;;;;;;9.00;4.30;;;16.80;76.80;;;16.75;56.04;101300.31;5075482;28;20196;-75
2023/06/06 01:27:22;;;;;;;5.67;3.80;;;16.80;77.30;;;16.66;56.09;101297.72;5075422;28;20219;-75
2023/06/06 01:29:54;;;;;;;7.87;4.30;;;16.70;77.30;;;16.59;56.50;101298.63;5075287;28;20217;-75
2023/06/06 01:32:33;;;;;;;8.03;4.50;;;16.70;77.60;;;16.52;56.56;101295.78;5074888;28;20640;-76
2023/06/06 01:35:15;;;;;;;8.07;3.97;;;16.60;77.70;;;16.57;56.40;101293.44;5075697;28;20193;-72
2023/06/06 01:37:57;;;;;;;7.10;3.80;;;16.60;78.40;;;16.55;56.69;101294.59;5074622;28;20221;-72
2023/06/06 01:40:34;;;;;;;4.47;3.87;;;16.60;78.70;;;16.46;56.47;101295.69;5075238;28;20200;-72
2023/06/06 01:43:10;;;;;;;5.93;3.80;;;16.50;78.40;;;16.40;56.30;101291.88;5075309;28;20253;-72
2023/06/06 01:45:46;;;;;;;4.13;3.60;;;16.50;78.70;;;16.40;56.77;101291.88;5075128;28;20217;-72
2023/06/06 01:48:20;;;;;;;7.20;3.80;;;16.60;78.70;;;16.38;56.42;101293.91;5075063;28;20199;-72
2023/06/06 01:50:55;;;;;;;5.83;3.63;;;16.40;79.10;;;16.27;56.45;101296.25;5075240;28;20624;-72
2023/06/06 01:53:29;;;;;;;4.00;3.57;;;16.30;80.40;;;16.18;57.17;101299.00;5074969;28;20285;-72
2023/06/06 01:56:02;;;;;;;5.30;3.60;;;16.20;80.20;;;16.16;57.70;101301.03;5074979;28;20225;-71
2023/06/06 01:58:35;;;;;;;3.90;3.47;;;16.20;80.40;;;16.24;57.37;101303.69;5074830;28;20277;-71
2023/06/06 02:01:09;;;;;;;6.20;3.80;;;16.40;80.20;;;16.14;57.08;101304.97;5074806;28;20229;-71
2023/06/06 02:03:43;;;;;;;5.87;3.77;;;16.20;80.20;;;16.24;56.88;101297.44;5074815;28;20721;-71
2023/06/06 02:06:17;;;;;;;5.57;3.90;;;16.30;80.30;;;16.14;57.89;101296.84;5074673;28;20255;-71
2023/06/06 02:08:50;;;;;;;5.90;3.53;;;16.30;80.30;;;16.17;57.53;101294.63;5074642;28;20248;-71
2023/06/06 02:11:24;;;;;;;6.53;4.20;;;16.30;80.20;;;16.06;56.87;101303.16;5075121;28;20212;-72
2023/06/06 02:13:59;;;;;;;4.37;3.60;;;16.10;81.20;;;15.94;57.81;101301.94;5074519;28;20280;-72
2023/06/06 02:16:33;;;;;;;6.03;3.57;;;16.00;81.50;;;15.80;58.26;101294.63;5074379;28;20213;-72
2023/06/06 02:19:06;;;;;;;4.47;3.57;;;15.90;82.10;;;15.86;58.29;101293.88;5074428;28;20186;-72
2023/06/06 02:21:40;;;;;;;5.37;3.80;;;16.00;82.70;;;15.87;57.89;101297.44;5074290;28;20196;-71
2023/06/06 02:24:14;;;;;;;5.50;3.97;;;15.90;82.70;;;15.66;58.07;101288.13;5074315;28;20236;-71
2023/06/06 02:26:48;;;;;;;4.40;3.70;;;15.80;82.70;;;15.62;58.25;101292.22;5074245;28;20190;-71
2023/06/06 02:29:23;;;;;;;4.67;4.10;;;15.80;83.10;;;15.57;59.34;101288.38;5074198;28;20248;-72
2023/06/06 02:32:00;;;;;;;4.47;4.03;;;15.60;83.90;;;15.58;58.74;101290.88;5074100;28;20244;-71
2023/06/06 02:34:33;;;;;;;5.20;3.80;;;15.70;84.00;;;15.57;58.64;101299.19;5073831;28;20281;-71
2023/06/06 02:37:07;;;;;;;8.00;3.90;;;15.80;83.50;;;15.51;58.88;101308.00;5074051;28;20196;-71
2023/06/06 02:39:40;;;;;;;5.03;3.83;;;15.60;83.60;;;15.53;58.87;101305.94;5074008;28;20218;-71
2023/06/06 02:42:15;;;;;;;5.03;3.87;;;15.70;84.10;;;15.31;59.46;101315.66;5073888;28;20260;-72
2023/06/06 02:44:48;;;;;;;5.13;4.10;;;15.40;84.50;;;15.29;59.87;101308.75;5073851;28;20268;-71
2023/06/06 02:47:22;;;;;;;4.80;4.00;;;15.40;85.20;;;15.34;59.23;101309.94;5073898;28;20277;-71
2023/06/06 02:49:55;;;;;;;8.00;3.90;;;15.50;85.10;;;15.34;59.33;101306.38;5073746;28;20271;-71
2023/06/06 02:52:31;;;;;;;4.97;3.87;;;15.60;85.20;;;15.30;59.04;101305.06;5073729;28;20225;-72
2023/06/06 02:55:04;;;;;;;4.50;3.60;;;15.50;85.30;;;15.28;59.33;101297.13;5073747;28;20284;-71
2023/06/06 02:57:38;;;;;;;5.77;4.20;;;15.50;85.60;;;15.21;59.84;101309.63;5073730;28;20193;-71
2023/06/06 03:00:15;;;;;;;4.10;3.60;;;15.40;85.70;;;15.18;59.88;101305.44;5073807;28;20210;-71
2023/06/06 03:02:49;;;;;;;4.43;3.63;;;15.30;86.00;;;15.14;59.83;101306.81;5073625;28;20315;-72
2023/06/06 03:05:28;;;;;;;6.93;4.00;;;15.30;87.20;;;15.11;60.02;101304.47;5073628;28;20189;-72
2023/06/06 03:08:02;;;;;;;6.43;3.93;;;15.20;87.10;;;14.95;60.81;101309.94;5073657;28;20239;-72
2023/06/06 03:10:35;;;;;;;5.47;3.90;;;15.10;87.80;;;15.00;60.75;101307.53;5073602;28;20210;-72
2023/06/06 03:13:09;;;;;;;5.17;3.93;;;15.20;88.10;;;15.03;60.67;101306.38;5073506;28;20316;-72
2023/06/06 03:15:44;;;;;;;5.00;4.20;;;15.20;88.30;;;15.09;60.27;101311.06;5073113;28;20331;-72
2023/06/06 03:18:20;;;;;;;5.67;4.27;;;16.10;88.10;;;15.01;60.42;101319.16;5073613;28;20292;-72
2023/06/06 03:20:54;;;;;;;6.67;4.60;;;15.20;87.50;;;14.98;60.46;101320.38;5073511;28;20197;-72
2023/06/06 03:23:27;;;;;;;6.53;4.47;;;15.20;87.90;;;15.05;60.58;101310.56;5074206;28;20320;-71
2023/06/06 03:26:00;;;;;;;7.20;4.00;;;15.30;87.90;;;14.99;60.47;101318.53;5073781;28;20318;-71
2023/06/06 03:28:34;;;;;;;7.07;4.40;;;15.10;88.10;;;14.96;60.99;101318.88;5074042;28;20189;-72
2023/06/06 03:31:11;;;;;;;7.50;4.23;;;15.20;88.30;;;14.94;61.06;101320.88;5074365;28;20549;-72
2023/06/06 03:33:45;;;;;;;4.80;4.30;;;15.20;88.30;;;14.93;61.01;101321.91;5074010;28;20236;-71
2023/06/06 03:36:19;;;;;;;6.40;4.70;;;15.10;90.00;;;14.82;61.36;101322.28;5073214;28;20285;-71
2023/06/06 03:38:53;;;;;;;5.47;4.30;;;15.00;89.10;;;14.78;61.34;101319.09;5073253;28;20193;-72
2023/06/06 03:41:26;;;;;;;6.27;4.20;;;14.90;89.50;;;14.80;60.80;101316.22;5072846;28;20217;-72
2023/06/06 03:44:00;;;;;;;7.97;4.73;;;15.00;89.40;;;14.66;61.65;101324.00;5073144;28;20226;-70
2023/06/06 03:46:35;;;;;;;6.40;4.60;;;14.90;89.70;;;14.58;61.90;101325.91;5072838;28;20638;-72
2023/06/06 03:49:09;;;;;;;6.13;4.67;;;14.70;90.40;;;14.56;61.89;101317.13;5073299;28;20276;-72
2023/06/06 03:51:42;;;;;;;6.53;4.50;;;14.70;90.60;;;14.48;62.05;101317.16;5073005;28;20235;-72
2023/06/06 03:54:16;;;;;;;4.93;4.23;;;14.70;90.70;;;14.53;61.91;101321.00;5073042;28;20218;-71
2023/06/06 03:56:49;;;;;;;5.80;4.50;;;14.70;90.70;;;14.42;62.69;101321.38;5073085;28;20193;-72
2023/06/06 03:59:22;;;;;;;5.27;4.53;;;14.70;90.70;;;14.45;62.66;101322.91;5072999;28;20196;-72
2023/06/06 04:01:56;;;;;;;7.30;4.93;;;14.60;90.90;;;14.29;62.94;101317.47;5075068;28;20225;-72
2023/06/06 04:04:30;;;;;;;5.50;4.73;;;14.50;91.30;;;14.32;63.51;101322.53;5076956;28;20221;-72
2023/06/06 04:07:04;;;;;;;6.97;4.70;;;14.50;91.50;;;14.34;63.44;101315.16;5076903;28;20217;-71
2023/06/06 04:09:39;;;;;;;6.10;4.93;;;14.60;91.50;;;14.27;64.13;101320.38;5076510;28;20249;-72
2023/06/06 04:12:13;;;;;;;6.43;5.37;;;14.50;91.80;;;14.27;63.16;101323.06;5076758;28;20224;-72
2023/06/06 04:14:47;;;;;;;9.37;5.53;;;14.50;91.60;;;14.25;64.20;101311.59;5076713;28;20233;-72
2023/06/06 04:17:20;;;;;;;6.53;4.40;;;14.50;91.80;;;14.27;63.59;101319.50;5076242;28;20629;-72
2023/06/06 04:19:55;;;;;;;6.10;4.80;;;14.50;91.90;;;14.27;64.01;101324.91;5076679;28;20186;-72
2023/06/06 04:22:29;;;;;;;5.97;4.37;;;14.50;91.80;;;14.26;63.65;101318.66;5076556;28;20229;-72
2023/06/06 04:25:02;;;;;;;7.60;5.43;;;14.50;92.10;;;14.24;63.68;101320.72;5076502;28;20280;-70
2023/06/06 04:27:37;;;;;;;5.73;4.73;;;14.50;91.90;;;14.22;64.07;101323.56;5076593;28;20281;-72
2023/06/06 04:30:13;;;;;;;6.97;4.90;;;14.40;92.20;;;14.28;64.04;101315.81;5076254;28;20209;-72
2023/06/06 04:32:48;;;;;;;6.27;5.17;;;14.50;92.10;;;14.25;64.12;101327.75;5076584;28;20590;-72
2023/06/06 04:35:21;;;;;;;7.60;5.07;;;14.50;92.20;;;14.21;64.40;101334.50;5076112;28;20192;-72
2023/06/06 04:37:57;;;;;;;7.20;5.10;;;14.60;92.30;;;14.09;64.87;101325.06;5076439;28;20276;-72
2023/06/06 04:40:32;;;;;;;5.63;4.63;;;14.30;92.50;;;14.15;64.38;101329.78;5076089;28;20189;-72
2023/06/06 04:43:27;;;;;;;6.50;5.60;;;14.50;92.40;;;14.16;64.55;101329.63;5076071;28;20229;-72
2023/06/06 04:46:01;;;;;;;7.87;5.17;;;14.40;92.70;;;14.19;63.96;101329.28;5076189;28;20644;-72
2023/06/06 04:48:34;;;;;;;6.73;4.90;;;14.50;92.50;;;14.20;64.47;101324.75;5076189;28;20313;-72
2023/06/06 04:51:08;;;;;;;6.50;5.10;;;14.50;92.70;;;14.13;65.22;101331.81;5075972;28;20666;-72
2023/06/06 04:53:44;;;;;;;6.47;5.30;;;14.40;93.00;;;14.11;64.75;101328.44;5076010;28;20236;-72
2023/06/06 04:56:18;;;;;;;8.00;5.10;;;14.40;93.10;;;14.16;65.27;101332.31;5076003;28;20204;-72
2023/06/06 04:58:53;;;;;;;7.40;5.07;;;14.50;93.10;;;14.18;64.88;101326.75;5075770;28;20239;-72
2023/06/06 05:01:26;;;;;;;6.87;5.80;;;14.40;93.00;;;14.16;64.92;101329.63;5075961;28;20224;-71
2023/06/06 05:04:00;;;;;;;9.27;5.10;;;14.40;93.10;;;14.19;64.85;101323.06;5075874;28;20193;-73
2023/06/06 05:06:34;;;;;;;8.57;5.20;;;14.50;93.10;;;14.20;65.40;101322.06;5075875;28;20193;-72
2023/06/06 05:09:08;;;;;;;6.63;5.40;;;14.50;93.10;;;14.19;65.92;101331.97;5075471;28;20675;-71
2023/06/06 05:11:48;;;;;;;6.20;5.00;;;14.40;93.40;;;14.19;66.01;101329.28;5075554;28;20263;-72
2023/06/06 05:14:23;;;;;;;6.37;4.97;;;14.50;93.70;;;14.23;66.17;101321.72;5074591;28;20738;-72
2023/06/06 05:16:58;;;;;;;8.53;5.20;;;14.50;93.70;;;14.29;66.09;101323.72;5075420;28;20300;-72
2023/06/06 05:19:32;;;;;;;5.93;5.30;;;14.60;93.60;;;14.30;65.88;101325.41;5075323;28;20549;-72
2023/06/06 05:22:05;;;;;;;10.73;5.53;;;14.60;93.80;;;14.33;66.88;101327.75;5075483;28;20270;-72
2023/06/06 05:24:38;;;;;;;8.17;4.97;;;14.70;94.00;;;14.36;66.25;101329.28;5075185;28;20232;-72
2023/06/06 05:27:12;;;;;;;7.37;5.20;;;14.80;93.90;;;14.37;67.03;101331.81;5075537;28;20204;-72
2023/06/06 05:29:46;;;;;;;6.37;5.30;;;14.70;94.20;;;14.37;67.57;101336.38;5075514;28;20236;-72
2023/06/06 05:32:19;;;;;;;8.93;5.50;;;14.70;94.60;;;14.40;67.11;101331.47;5075111;28;20759;-71
2023/06/06 05:34:53;;;;;;;8.23;5.30;;;14.70;94.40;;;14.38;67.20;101338.06;5075360;28;20197;-71
2023/06/06 05:37:28;;;;;;;8.13;5.27;;;14.70;94.90;;;14.40;67.39;101339.56;5075426;28;20190;-72
2023/06/06 05:40:01;;;;;;;10.83;5.50;;;14.70;94.70;;;14.43;67.21;101328.44;5076033;28;20267;-71
2023/06/06 05:42:35;;;;;;;7.20;4.97;;;14.80;94.50;;;14.43;67.15;101331.13;5074993;28;20226;-72
2023/06/06 05:45:10;;;;;;;6.77;4.90;;;14.80;94.50;;;14.47;67.25;101335.19;5074751;28;20610;-71
2023/06/06 05:47:44;;;;;;;7.57;4.73;;;14.80;94.50;;;14.50;67.82;101339.38;5075073;28;20193;-71
2023/06/06 05:50:17;;;;;;;7.60;5.17;;;14.90;94.70;;;14.52;67.61;101335.50;5074950;28;20272;-72
2023/06/06 05:52:51;;;;;;;6.63;5.27;;;14.90;94.60;;;14.57;67.62;101338.53;5074862;28;20229;-72
2023/06/06 05:55:36;;;;;;;7.83;4.93;;;15.00;94.70;;;14.64;67.23;101338.69;5074880;28;20211;-71
2023/06/06 05:58:09;;;;;;;6.73;5.43;;;15.10;94.40;;;14.68;67.57;101330.09;5074872;28;20273;-72
2023/06/06 06:00:42;;;;;;;6.43;5.13;;;15.10;94.50;;;14.67;67.06;101332.94;5075489;28;20192;-72
2023/06/06 06:03:17;;;;;;;9.10;5.20;;;15.10;94.10;;;14.76;67.34;101331.06;5075029;28;20229;-72
2023/06/06 06:05:51;;;;;;;9.20;4.77;;;15.20;94.50;;;14.82;67.63;101330.38;5074596;28;20193;-72
2023/06/06 06:08:24;;;;;;;7.63;5.00;;;15.20;94.60;;;14.88;64.82;101329.69;5074684;28;20225;-72
2023/06/06 06:10:56;;;;;;;8.93;4.33;;;15.30;93.20;;;14.97;65.66;101334.84;5074507;28;20232;-72
2023/06/06 06:13:29;;;;;;;6.73;4.10;;;15.40;93.50;;;15.06;64.86;101343.78;5074398;28;20317;-72
2023/06/06 06:16:03;;;;;;;9.33;4.33;;;15.50;93.00;;;15.13;63.87;101339.38;5074540;28;20217;-72
2023/06/06 06:18:36;;;;;;;7.43;4.57;;;15.60;92.60;;;15.23;64.00;101331.91;5075406;28;20212;-72
2023/06/06 06:21:10;;;;;;;5.27;3.70;;;15.60;92.40;;;15.29;62.45;101333.88;5076206;28;20212;-72
2023/06/06 06:23:43;;;;;;;7.17;4.00;;;15.70;92.00;;;15.34;62.29;101336.06;5076628;28;20229;-72
2023/06/06 06:26:17;;;;;;;10.07;3.60;;;15.80;91.70;;;15.44;60.63;101342.91;5078353;28;20233;-72
2023/06/06 06:28:54;;;;;;;7.30;3.80;;;15.90;90.40;;;15.56;59.74;101341.50;5075590;28;20194;-73
2023/06/06 06:31:28;;;;;;;6.13;3.57;;;16.00;90.10;;;15.64;60.21;101341.47;5074288;28;20213;-72
2023/06/06 06:34:01;;;;;;;5.60;3.83;;;16.10;90.00;;;15.71;60.65;101345.16;5074271;28;20201;-72
2023/06/06 06:36:35;;;;;;;6.40;3.77;;;16.20;90.20;;;15.80;60.38;101347.78;5074109;28;20636;-72
2023/06/06 06:39:09;;;;;;;6.43;3.80;;;16.30;90.20;;;15.87;60.07;101343.34;5074130;28;20292;-72
2023/06/06 06:41:42;;;;;;;6.33;3.77;;;16.30;90.00;;;15.90;62.21;101338.41;5074763;28;20243;-72
2023/06/06 06:44:15;;;;;;;10.40;3.90;;;16.40;91.10;;;15.93;60.30;101338.03;5074004;28;20230;-72
2023/06/06 06:46:48;;;;;;;8.23;3.67;;;16.40;90.20;;;15.97;60.84;101333.97;5074011;28;20190;-72
2023/06/06 06:49:22;;;;;;;6.17;3.70;;;16.40;90.40;;;16.02;60.18;101341.53;5073866;28;20190;-72
2023/06/06 06:51:55;;;;;;;4.97;3.50;;;16.50;90.10;;;16.07;60.98;101339.13;5073740;28;20265;-72
2023/06/06 06:54:28;;;;;;;9.20;3.50;;;16.50;90.10;;;16.08;59.60;101338.94;5073868;28;20277;-72
2023/06/06 06:57:02;;;;;;;6.47;3.43;;;16.60;89.40;;;16.08;60.20;101341.66;5073498;28;20697;-72
2023/06/06 06:59:36;;;;;;;9.50;3.80;;;16.50;89.60;;;16.07;60.41;101342.66;5073836;28;20215;-72
2023/06/06 07:02:11;;;;;;;9.03;3.33;;;16.60;89.60;;;16.09;60.00;101350.59;5073711;28;20314;-73
2023/06/06 07:04:45;;;;;;;6.37;3.40;;;16.50;89.10;;;16.16;58.98;101354.25;5073811;28;20280;-73
2023/06/06 07:07:20;;;;;;;7.93;3.50;;;16.60;89.20;;;16.21;59.06;101354.53;5073661;28;20189;-73
2023/06/06 07:09:53;;;;;;;6.00;3.50;;;16.70;88.40;;;16.25;59.04;101350.44;5073716;28;20223;-73
2023/06/06 07:12:27;;;;;;;7.30;3.33;;;16.70;88.50;;;16.27;59.97;101356.50;5073509;28;20287;-73
2023/06/06 07:15:00;;;;;;;6.53;3.53;;;16.20;88.50;;;16.31;59.43;101352.41;5073612;28;20259;-73
2023/06/06 07:17:33;;;;;;;4.73;3.07;;;16.80;89.00;;;16.37;58.58;101350.88;5074259;28;20209;-73
2023/06/06 07:20:11;;;;;;;4.73;3.23;;;16.80;87.80;;;16.45;58.56;101353.47;5073490;28;20197;-73
2023/06/06 07:22:44;;;;;;;6.47;3.13;;;16.80;87.30;;;16.50;61.31;101357.31;5073425;28;20232;-73
2023/06/06 07:25:18;;;;;;;7.97;3.60;;;17.00;90.10;;;16.59;59.26;101360.81;5073496;28;20314;-73
2023/06/06 07:27:52;;;;;;;9.23;3.77;;;17.10;88.00;;;16.69;58.17;101356.81;5073992;28;20229;-73
2023/06/06 07:30:25;;;;;;;7.07;3.40;;;17.20;87.50;;;16.78;57.68;101362.97;5073292;28;20273;-72
2023/06/06 07:32:59;;;;;;;7.60;3.37;;;17.30;86.80;;;16.87;58.15;101358.31;5073260;28;20253;-72
2023/06/06 07:35:33;;;;;;;4.93;3.47;;;17.30;86.50;;;16.96;57.97;101359.88;5072329;28;20245;-72
2023/06/06 07:38:06;;;;;;;4.90;3.23;;;17.40;86.20;;;17.02;59.41;101359.16;5073335;28;20221;-72
2023/06/06 07:40:40;;;;;;;10.23;4.00;;;17.50;87.80;;;17.06;57.40;101357.75;5073234;28;20189;-73
2023/06/06 07:43:15;;;;;;;9.43;3.50;;;17.70;85.40;;;17.13;56.56;101350.56;5073320;28;20313;-76
2023/06/06 07:45:48;;;;;;;6.37;3.57;;;17.60;84.40;;;17.27;55.56;101352.41;5073037;28;20684;-75
2023/06/06 07:48:21;;;;;;;6.83;3.23;;;17.70;82.90;;;17.24;54.73;101355.50;5073210;28;20236;-75
2023/06/06 07:50:55;;;;;;;9.77;3.30;;;17.70;82.40;;;17.26;56.36;101348.00;5073088;28;20281;-74
2023/06/06 07:53:29;;;;;;;7.87;3.57;;;17.70;84.80;;;17.29;56.56;101350.38;5073038;28;20324;-76
2023/06/06 07:56:03;;;;;;;5.17;2.97;;;17.80;85.20;;;17.34;56.26;101356.03;5073070;28;20197;-75
2023/06/06 07:58:51;;;;;;;5.63;3.30;;;17.80;84.50;;;17.41;55.61;101348.84;5073093;28;20194;-75
2023/06/06 08:01:25;;;;;;;12.17;3.80;;;17.80;83.00;;;17.47;55.96;101358.91;5072702;28;20197;-75
2023/06/06 08:03:59;;;;;;;5.67;3.53;;;17.90;83.70;;;17.52;55.86;101356.47;5072789;28;20184;-75
2023/06/06 08:06:36;;;;;;;7.20;3.20;;;18.00;84.00;;;17.55;55.31;101352.53;5072625;28;20338;-75
2023/06/06 08:09:10;;;;;;;6.17;3.40;;;18.00;83.10;;;17.61;58.00;101349.09;5073276;28;20276;-76
2023/06/06 08:11:44;;;;;;;5.43;3.63;;;18.10;86.80;;;17.66;57.96;101350.22;5072799;28;20305;-76
2023/06/06 08:14:17;;;;;;;9.03;3.80;;;18.10;86.00;;;17.77;55.67;101356.16;5072878;28;20277;-76
2023/06/06 08:16:51;;;;;;;4.97;3.20;;;18.20;83.40;;;17.87;54.06;101356.69;5072742;28;20214;-75
2023/06/06 08:19:24;;;;;;;7.93;3.87;;;18.30;81.90;;;17.96;53.62;101350.94;5072893;28;20247;-75
2023/06/06 08:21:57;;;;;;;3.23;2.70;;;18.40;79.80;;;18.04;54.15;101358.09;5072748;28;20253;-75
2023/06/06 08:24:31;;;;;;;7.27;3.07;;;18.50;80.50;;;18.20;52.99;101358.66;5072619;28;20225;-76
2023/06/06 08:27:05;;;;;;;5.67;3.20;;;18.60;78.80;;;18.31;52.59;101349.16;5072837;28;20289;-75
2023/06/06 08:29:38;;;;;;;4.57;3.13;;;18.80;78.50;;;18.42;52.34;101355.94;5072561;28;20543;-75
2023/06/06 08:32:14;;;;;;;8.60;3.20;;;18.90;78.40;;;18.46;54.54;101352.59;5072368;28;20737;-75
2023/06/06 08:34:47;;;;;;;4.50;3.10;;;18.90;80.60;;;18.50;52.20;101364.78;5072493;28;20677;-75
2023/06/06 08:37:21;;;;;;;5.13;3.37;;;18.90;78.00;;;18.58;52.43;101350.25;5072689;28;20277;-75
2023/06/06 08:39:54;;;;;;;8.17;4.00;;;19.00;78.50;;;18.68;52.59;101346.16;5072681;28;20244;-75
2023/06/06 08:42:33;;;;;;;4.10;2.80;;;19.10;79.40;;;18.71;53.26;101351.16;5072216;28;20773;-75
2023/06/06 08:45:08;;;;;;;4.90;3.10;;;19.10;78.90;;;18.80;53.46;101348.31;5072790;28;20284;-75
2023/06/06 08:47:45;;;;;;;6.20;3.00;;;19.20;79.60;;;18.91;52.75;101353.16;5074322;28;20614;-76
2023/06/06 08:50:20;;;;;;;6.53;3.17;;;19.30;78.60;;;18.99;52.42;101355.72;5076176;28;20186;-75
2023/06/06 08:52:56;;;;;;;5.80;3.23;;;19.50;78.10;;;19.05;53.43;101354.91;5075951;28;20329;-75
2023/06/06 08:55:31;;;;;;;7.40;3.23;;;19.50;79.00;;;19.13;54.20;101355.59;5076119;28;20285;-76
2023/06/06 08:58:08;;;;;;;6.07;2.77;;;19.60;80.20;;;19.23;51.87;101360.66;5075813;28;20258;-75
2023/06/06 09:00:41;;;;;;;11.40;4.13;;;19.60;77.00;;;19.33;50.63;101349.41;5075972;28;20284;-75
2023/06/06 09:03:15;;;;;;;6.40;3.73;;;19.80;75.40;;;19.33;51.72;101347.53;5075916;28;20229;-75
2023/06/06 09:05:51;;;;;;;7.40;2.93;;;19.70;76.80;;;19.36;51.68;101352.56;5076077;28;20190;-75
2023/06/06 09:08:25;;;;;;;4.53;3.00;;;19.70;76.80;;;19.46;50.41;101350.31;5076582;28;20645;-75
2023/06/06 09:10:58;;;;;;;5.83;3.37;;;19.80;75.00;;;19.54;51.32;101350.16;5079475;28;20189;-73
2023/06/06 09:13:32;;;;;;;6.33;3.57;;;20.00;76.00;;;19.63;50.36;101348.06;5080204;28;20315;-74
2023/06/06 09:16:09;;;;;;;6.13;3.20;;;20.10;74.70;;;19.68;52.96;101354.59;5083088;28;20244;-73
2023/06/06 09:18:43;;;;;;;5.13;3.33;;;20.10;78.10;;;19.78;50.12;101356.06;5081721;28;20201;-73
2023/06/06 09:21:17;;;;;;;5.33;3.27;;;20.20;74.50;;;19.85;51.78;101349.59;5082136;28;20249;-73
2023/06/06 09:23:56;;;;;;;3.67;3.10;;;20.20;75.80;;;19.96;49.19;101343.56;5087571;28;20260;-75
2023/06/06 09:26:30;;;;;;;5.93;3.20;;;20.30;73.20;;;20.11;48.97;101351.50;5080410;28;20186;-76
2023/06/06 09:29:12;;;;;;;5.03;3.40;;;20.50;72.70;;;20.19;50.05;101345.88;5075495;28;20197;-75
2023/06/06 09:31:48;;;;;;;7.50;3.53;;;20.60;74.00;;;20.36;50.49;101341.72;5075200;28;20584;-75
2023/06/06 09:34:28;;;;;;;6.10;3.67;;;20.80;74.70;;;20.47;48.86;101343.81;5075730;28;20210;-75
2023/06/06 09:37:04;;;;;;;4.03;3.20;;;20.80;73.00;;;20.54;49.77;101339.22;5075497;28;20213;-74
2023/06/06 09:39:38;;;;;;;9.00;3.47;;;21.00;72.90;;;20.63;49.06;101337.94;5075261;28;20231;-76
2023/06/06 09:42:15;;;;;;;5.57;3.20;;;21.00;72.70;;;20.68;47.69;101340.88;5075483;28;20226;-75
2023/06/06 09:44:49;;;;;;;5.60;3.13;;;21.00;70.50;;;20.77;47.47;101340.63;5075119;28;20284;-75
2023/06/06 09:47:23;;;;;;;4.37;3.50;;;21.10;70.90;;;20.85;46.10;101333.09;5075046;28;20194;-75
2023/06/06 09:50:00;;;;;;;4.40;3.03;;;21.20;68.50;;;20.89;48.26;101337.03;5075066;28;20189;-75
2023/06/06 09:52:34;;;;;;;6.93;3.43;;;21.30;70.80;;;20.93;46.88;101340.16;5074987;28;20236;-75
2023/06/06 09:55:16;;;;;;;6.17;3.50;;;21.30;68.90;;;21.06;46.30;101338.25;5074965;28;20193;-75
2023/06/06 09:57:58;;;;;;;5.70;3.00;;;21.40;68.60;;;21.13;46.36;101343.72;5075702;28;20217;-76
2023/06/06 10:00:37;;;;;;;5.73;3.20;;;21.50;68.00;;;21.15;45.44;101341.63;5074341;28;20323;-74
2023/06/06 10:03:18;;;;;;;4.83;3.13;;;21.50;67.20;;;21.23;45.43;101342.19;5074717;28;20244;-75
2023/06/06 10:05:53;;;;;;;4.30;3.20;;;21.60;67.20;;;21.32;46.24;101331.91;5074879;28;20243;-75
2023/06/06 10:08:31;;;;;;;7.33;3.23;;;21.70;68.60;;;21.51;44.75;101335.56;5074829;28;20239;-75
2023/06/06 10:11:08;;;;;;;6.00;3.30;;;21.80;66.20;;;21.60;44.58;101337.84;5074894;28;20190;-75
2023/06/06 10:13:42;;;;;;;6.13;3.20;;;22.00;65.70;;;21.74;44.37;101342.19;5074463;28;20240;-74
2023/06/06 10:16:17;;;;;;;5.30;3.50;;;22.10;66.00;;;21.96;43.30;101339.13;5074579;28;20263;-75
2023/06/06 10:18:54;;;;;;;5.97;3.00;;;22.30;64.00;;;22.09;42.95;101339.03;5074444;28;20221;-75
2023/06/06 10:21:30;;;;;;;5.80;3.20;;;22.50;63.00;;;22.20;43.15;101330.13;5074090;28;20602;-76
2023/06/06 10:24:04;;;;;;;7.23;3.43;;;22.50;62.80;;;22.24;43.00;101334.91;5074371;28;20220;-75
2023/06/06 10:26:57;;;;;;;6.10;3.50;;;22.60;63.30;;;22.28;44.86;101337.19;5074202;28;20221;-76
2023/06/06 10:29:45;;;;;;;5.13;4.47;;;22.60;65.60;;;22.36;43.12;101332.31;5074137;28;20212;-75
2023/06/06 10:32:39;;;;;;;5.07;3.13;;;22.70;63.80;;;22.42;44.80;101334.13;5074102;28;20257;-75
2023/06/06 10:35:17;;;;;;;3.47;2.63;;;22.70;65.10;;;22.46;43.13;101329.91;5073789;28;20189;-75
2023/06/06 10:38:07;;;;;;;5.13;2.73;;;22.80;63.10;;;22.49;43.93;101328.63;5074075;28;20204;-75
2023/06/06 10:40:52;;;;;;;5.23;3.20;;;22.70;63.80;;;22.52;43.36;101328.16;5073768;28;20631;-75
2023/06/06 10:43:56;;;;;;;4.93;3.07;;;22.80;63.00;;;22.54;41.31;101331.50;5073606;28;20232;-75